Time;durP1;ratioP1;P1;durP2;ratioP2;P2;SDS_P1;SDS_P2;PMS_P1;PMS_P2;Temp;Humidity;BMP_temperature;BMP_pressure;BME280_temperature;BME280_humidity;BME280_pressure;Samples;Min_cycle;Max_cycle;Signal;HPM_P1;HPM_P2
2022/03/23 00:02:13;;;;;;;59.53;36.40;;;7.30;99.90;;;;;;5110795;28;20039;-80
2022/03/23 00:04:57;;;;;;;61.20;37.25;;;7.30;99.90;;;;;;5112128;28;20077;-81
2022/03/23 00:07:41;;;;;;;;;;;7.30;99.90;;;;;;5111472;28;20046;-80
2022/03/23 00:10:25;;;;;;;57.25;35.55;;;7.10;99.90;;;;;;5112242;28;19973;-80
2022/03/23 00:13:09;;;;;;;;;;;7.10;99.90;;;;;;5112233;28;20039;-80
2022/03/23 00:15:54;;;;;;;59.35;34.10;;;7.00;99.90;;;;;;5112411;28;19931;-80
2022/03/23 00:18:38;;;;;;;61.28;34.95;;;7.20;99.90;;;;;;5090806;28;20400;-80
2022/03/23 00:21:22;;;;;;;57.67;35.00;;;6.80;99.90;;;;;;5090419;28;20047;-80
2022/03/23 00:24:06;;;;;;;63.40;36.58;;;8.00;99.90;;;;;;5091348;28;20093;-80
2022/03/23 00:26:51;;;;;;;60.20;35.17;;;7.40;99.90;;;;;;5090875;28;20541;-80
2022/03/23 00:29:35;;;;;;;;;;;6.90;99.90;;;;;;5091325;28;20124;-80
2022/03/23 00:32:20;;;;;;;60.83;35.20;;;7.60;99.90;;;;;;5098701;28;19998;-80
2022/03/23 00:35:04;;;;;;;;;;;8.10;99.90;;;;;;5111567;28;20042;-81
2022/03/23 00:37:48;;;;;;;56.05;33.88;;;6.80;99.90;;;;;;5111163;28;19919;-80
2022/03/23 00:40:33;;;;;;;59.25;33.15;;;7.00;99.90;;;;;;5111350;28;20038;-80
2022/03/23 00:43:17;;;;;;;59.08;34.85;;;6.70;99.90;;;;;;5111517;28;20096;-80
2022/03/23 00:46:02;;;;;;;63.55;35.13;;;6.70;99.90;;;;;;5111927;28;20540;-82
2022/03/23 00:48:47;;;;;;;61.15;35.30;;;6.60;99.90;;;;;;5112159;28;20451;-81
2022/03/23 00:51:31;;;;;;;62.03;35.53;;;6.60;99.90;;;;;;5093738;28;20495;-80
2022/03/23 00:54:15;;;;;;;;;;;6.60;99.90;;;;;;5111934;28;20063;-80
2022/03/23 00:56:59;;;;;;;58.08;33.83;;;6.50;99.90;;;;;;5114700;28;19999;-80
2022/03/23 00:59:43;;;;;;;60.97;34.10;;;6.50;99.90;;;;;;5100047;28;20077;-80
2022/03/23 01:02:27;;;;;;;;;;;6.50;99.90;;;;;;5100370;28;20038;-80
2022/03/23 01:05:13;;;;;;;65.13;34.70;;;6.40;99.90;;;;;;5114174;28;19940;-80
2022/03/23 01:07:57;;;;;;;66.90;36.55;;;6.40;99.90;;;;;;5115225;28;20055;-80
2022/03/23 01:10:42;;;;;;;60.22;35.47;;;6.50;99.90;;;;;;5116047;28;20141;-80
2022/03/23 01:13:25;;;;;;;;;;;6.40;99.90;;;;;;5095068;28;20035;-80
2022/03/23 01:16:10;;;;;;;58.50;32.33;;;6.40;99.90;;;;;;5093579;28;19919;-81
2022/03/23 01:18:54;;;;;;;60.40;35.60;;;7.10;99.90;;;;;;5094034;28;20101;-81
2022/03/23 01:21:38;;;;;;;;;;;6.30;99.90;;;;;;5095477;28;20123;-80
2022/03/23 01:24:22;;;;;;;56.65;34.00;;;7.20;99.90;;;;;;5101236;28;20394;-80
2022/03/23 01:27:07;;;;;;;64.38;33.95;;;6.20;99.90;;;;;;5113881;28;20046;-82
2022/03/23 01:29:52;;;;;;;62.33;36.65;;;6.20;99.90;;;;;;5115222;28;20491;-80
2022/03/23 01:32:36;;;;;;;62.63;37.08;;;6.20;99.90;;;;;;5114851;28;20395;-80
2022/03/23 01:35:20;;;;;;;67.75;38.20;;;6.20;99.90;;;;;;5099101;28;20122;-80
2022/03/23 01:38:04;;;;;;;;;;;6.60;99.90;;;;;;5115553;28;20498;-80
2022/03/23 01:40:49;;;;;;;53.13;32.80;;;6.10;99.90;;;;;;5114846;28;19919;-80
2022/03/23 01:43:33;;;;;;;64.68;38.10;;;6.10;99.90;;;;;;5114382;28;20123;-81
2022/03/23 01:46:18;;;;;;;;;;;6.10;99.90;;;;;;5114665;28;20058;-81
2022/03/23 01:49:02;;;;;;;63.55;35.50;;;6.00;99.90;;;;;;5114926;28;19918;-81
2022/03/23 01:51:46;;;;;;;62.70;36.50;;;6.90;99.90;;;;;;5113876;28;20039;-80
2022/03/23 01:54:31;;;;;;;67.38;39.03;;;;;;;;;;5113079;28;20096;-81
2022/03/23 01:57:17;;;;;;;68.63;37.50;;;5.90;99.90;;;;;;5113858;28;20097;-81
2022/03/23 02:00:05;;;;;;;62.28;36.55;;;5.90;99.90;;;;;;5114521;28;20035;-80
2022/03/23 02:02:50;;;;;;;80.13;40.97;;;;;;;;;;5114682;28;20039;-80
2022/03/23 02:05:34;;;;;;;74.28;40.25;;;5.60;99.90;;;;;;5112893;28;20035;-80
2022/03/23 02:08:19;;;;;;;75.03;41.25;;;5.90;99.90;;;;;;5112800;28;20091;-81
2022/03/23 02:11:03;;;;;;;66.13;37.25;;;5.90;99.90;;;;;;5113140;28;20081;-81
2022/03/23 02:13:48;;;;;;;73.25;39.60;;;5.80;99.90;;;;;;5098799;28;20073;-80
2022/03/23 02:16:44;;;;;;;67.70;39.67;;;5.80;99.90;;;;;;5092364;28;20059;-80
2022/03/23 02:19:28;;;;;;;64.78;38.78;;;5.80;99.90;;;;;;5108342;28;20038;-80
2022/03/23 02:22:13;;;;;;;76.57;40.97;;;;;;;;;;5098780;28;20055;-81
2022/03/23 02:24:57;;;;;;;75.10;39.20;;;5.70;99.90;;;;;;5113203;28;20502;-80
2022/03/23 02:27:42;;;;;;;70.90;39.30;;;;;;;;;;5113074;28;20099;-80
2022/03/23 02:30:26;;;;;;;73.38;40.42;;;5.70;99.90;;;;;;5112994;28;20448;-81
2022/03/23 02:33:11;;;;;;;72.07;39.08;;;;;;;;;;5112872;28;20501;-80
2022/03/23 02:35:56;;;;;;;73.28;39.63;;;;;;;;;;5098653;28;20047;-80
2022/03/23 02:38:40;;;;;;;70.63;41.00;;;;;;;;;;5112477;28;20034;-80
2022/03/23 02:41:24;;;;;;;78.53;39.30;;;6.00;99.90;;;;;;5112788;28;20074;-80
2022/03/23 02:44:11;;;;;;;;;;;5.60;99.90;;;;;;5113028;28;20494;-80
2022/03/23 02:46:56;;;;;;;66.18;37.78;;;;;;;;;;5113431;28;19922;-81
2022/03/23 02:49:41;;;;;;;75.15;38.70;;;;;;;;;;5112211;28;20074;-80
2022/03/23 02:52:27;;;;;;;66.68;37.47;;;;;;;;;;5112135;28;20043;-80
2022/03/23 03:01:52;;;;;;;;;;;5.70;99.90;;;;;;5113532;28;20088;-82
2022/03/23 03:04:36;;;;;;;71.30;37.80;;;5.30;99.90;;;;;;5111580;28;20052;-80
2022/03/23 03:07:20;;;;;;;70.57;39.38;;;5.40;99.90;;;;;;5141051;27;20126;-81
2022/03/23 03:10:05;;;;;;;69.10;36.42;;;5.40;99.90;;;;;;5112246;28;20055;-80
2022/03/23 03:12:50;;;;;;;69.50;37.70;;;5.30;99.90;;;;;;5113320;28;20537;-80
2022/03/23 03:15:35;;;;;;;74.22;39.17;;;5.30;99.90;;;;;;5111622;28;20034;-80
2022/03/23 03:18:20;;;;;;;71.55;40.17;;;;;;;;;;5097088;28;20399;-81
2022/03/23 03:21:06;;;;;;;64.68;38.42;;;5.20;99.90;;;;;;5111702;28;20058;-81
2022/03/23 03:23:51;;;;;;;72.80;39.63;;;;;;;;;;5091790;28;20046;-80
2022/03/23 03:26:35;;;;;;;73.55;40.00;;;5.10;99.90;;;;;;5090981;28;20507;-80
2022/03/23 03:29:20;;;;;;;68.15;38.35;;;6.00;99.90;;;;;;5091579;28;20039;-80
2022/03/23 03:32:05;;;;;;;79.68;41.58;;;;;;;;;;5091578;28;20043;-80
2022/03/23 03:34:49;;;;;;;71.68;39.42;;;5.10;99.90;;;;;;5092438;28;20134;-80
2022/03/23 03:37:34;;;;;;;82.07;42.47;;;5.90;99.90;;;;;;5090142;28;20123;-81
2022/03/23 03:40:18;;;;;;;76.47;40.25;;;5.10;99.90;;;;;;5092342;28;20039;-80
2022/03/23 03:43:02;;;;;;;;;;;5.10;99.90;;;;;;5096459;28;20059;-81
2022/03/23 03:45:46;;;;;;;74.53;38.20;;;5.00;99.90;;;;;;5111116;28;19919;-80
2022/03/23 03:48:30;;;;;;;76.50;40.67;;;5.00;99.90;;;;;;5112003;28;20061;-81
2022/03/23 03:51:15;;;;;;;74.50;40.38;;;;;;;;;;5111330;28;20042;-80
2022/03/23 03:53:59;;;;;;;80.72;40.88;;;4.90;99.90;;;;;;5097269;28;20088;-80
2022/03/23 03:56:43;;;;;;;73.70;39.47;;;4.90;99.90;;;;;;5111923;28;20043;-80
2022/03/23 03:59:28;;;;;;;73.60;40.75;;;5.50;99.90;;;;;;5082287;28;20058;-81
2022/03/23 04:02:14;;;;;;;73.75;40.50;;;4.90;99.90;;;;;;5097244;28;20104;-81
2022/03/23 04:04:58;;;;;;;64.82;38.00;;;5.30;99.90;;;;;;5112647;28;20153;-80
2022/03/23 04:07:42;;;;;;;;;;;4.90;99.90;;;;;;5096590;28;20042;-80
2022/03/23 04:10:27;;;;;;;72.10;39.53;;;5.00;99.90;;;;;;5112105;28;19943;-81
2022/03/23 04:13:11;;;;;;;80.82;42.70;;;4.80;99.90;;;;;;5111371;28;20218;-80
2022/03/23 04:15:54;;;;;;;;;;;4.80;99.90;;;;;;5111695;28;20089;-81
2022/03/23 04:18:39;;;;;;;74.70;39.00;;;6.50;99.90;;;;;;5110698;28;19977;-80
2022/03/23 04:21:23;;;;;;;;;;;5.50;99.90;;;;;;5111652;28;20124;-80
2022/03/23 04:24:07;;;;;;;52.38;28.80;;;5.30;99.90;;;;;;5112070;28;19915;-80
2022/03/23 04:26:51;;;;;;;70.38;38.45;;;4.70;99.90;;;;;;5075989;28;20051;-80
2022/03/23 04:29:36;;;;;;;74.07;39.60;;;5.00;99.90;;;;;;5091798;28;20400;-80
2022/03/23 04:32:20;;;;;;;;;;;4.80;99.90;;;;;;5095311;28;20119;-80
2022/03/23 04:35:05;;;;;;;66.22;37.30;;;4.70;99.90;;;;;;5096044;28;19919;-80
2022/03/23 04:37:50;;;;;;;68.50;36.38;;;4.60;99.90;;;;;;5094325;28;20342;-80
2022/03/23 04:40:34;;;;;;;62.25;35.33;;;5.10;99.90;;;;;;5091677;28;20502;-81
2022/03/23 04:43:19;;;;;;;60.78;35.13;;;5.50;99.90;;;;;;5116046;28;20093;-80
2022/03/23 04:46:03;;;;;;;66.15;35.40;;;4.60;99.90;;;;;;5115183;28;20164;-80
2022/03/23 04:48:47;;;;;;;;;;;4.50;99.90;;;;;;5100468;28;20047;-80
2022/03/23 04:51:31;;;;;;;61.78;33.17;;;4.50;99.90;;;;;;5115844;28;19962;-81
2022/03/23 04:54:15;;;;;;;;;;;4.50;99.90;;;;;;5115996;28;20046;-81
2022/03/23 04:56:59;;;;;;;61.55;34.90;;;4.40;99.90;;;;;;5114879;28;19973;-80
2022/03/23 04:59:44;;;;;;;65.20;36.05;;;4.60;99.90;;;;;;5093811;28;20128;-80
2022/03/23 05:02:28;;;;;;;69.05;36.58;;;4.40;99.90;;;;;;5094385;28;20039;-80
2022/03/23 05:05:13;;;;;;;;;;;4.40;99.90;;;;;;5095761;28;20100;-80
2022/03/23 05:07:57;;;;;;;;;;;5.10;99.90;;;;;;5113138;28;19922;-80
2022/03/23 05:10:41;;;;;;;49.95;26.27;;;4.30;99.90;;;;;;5113670;28;19981;-80
2022/03/23 05:13:25;;;;;;;58.97;33.15;;;5.90;99.90;;;;;;5114473;28;20074;-80
2022/03/23 05:16:10;;;;;;;68.97;36.20;;;4.20;99.90;;;;;;5114643;28;20119;-80
2022/03/23 05:18:54;;;;;;;68.28;36.70;;;5.40;99.90;;;;;;5113366;28;20038;-81
2022/03/23 05:21:38;;;;;;;70.63;37.60;;;4.20;99.90;;;;;;5113667;28;20091;-81
2022/03/23 05:24:22;;;;;;;;;;;4.20;99.90;;;;;;5129415;27;20130;-80
2022/03/23 05:27:07;;;;;;;68.10;36.17;;;4.50;99.90;;;;;;5113882;28;19961;-80
2022/03/23 05:29:52;;;;;;;63.92;35.28;;;4.10;99.90;;;;;;5114687;28;20061;-80
2022/03/23 05:32:36;;;;;;;68.20;36.20;;;4.10;99.90;;;;;;5114870;28;20038;-81
2022/03/23 05:35:21;;;;;;;62.65;33.50;;;4.10;99.90;;;;;;5143370;27;20503;-80
2022/03/23 05:38:06;;;;;;;67.03;34.92;;;4.10;99.90;;;;;;5143126;27;20039;-80
2022/03/23 05:40:50;;;;;;;62.70;35.85;;;4.10;99.90;;;;;;5112703;28;20062;-80
2022/03/23 05:43:34;;;;;;;71.38;37.05;;;4.30;99.90;;;;;;5085218;28;20047;-80
2022/03/23 05:46:18;;;;;;;;;;;4.10;99.90;;;;;;5111899;27;20507;-81
2022/03/23 05:49:03;;;;;;;67.63;35.28;;;4.10;99.90;;;;;;5107471;28;19931;-80
2022/03/23 05:51:47;;;;;;;67.07;36.15;;;5.60;99.90;;;;;;5121854;27;20123;-80
2022/03/23 05:54:31;;;;;;;;;;;5.70;99.90;;;;;;5094994;28;20454;-80
2022/03/23 05:57:16;;;;;;;60.67;32.92;;;;;;;;;;5094551;28;19937;-80
2022/03/23 06:00:00;;;;;;;71.85;34.97;;;3.90;99.90;;;;;;5097132;28;20099;-80
2022/03/23 06:02:44;;;;;;;62.95;33.95;;;4.10;99.90;;;;;;5102610;28;20075;-81
2022/03/23 06:05:29;;;;;;;66.53;35.25;;;4.90;99.90;;;;;;5099198;28;20092;-80
2022/03/23 06:08:13;;;;;;;;;;;4.20;99.90;;;;;;5114919;28;20050;-82
2022/03/23 06:10:57;;;;;;;64.05;34.63;;;5.00;99.90;;;;;;5104896;28;20382;-80
2022/03/23 06:13:42;;;;;;;71.10;36.10;;;4.20;99.90;;;;;;5127061;27;20104;-83
2022/03/23 06:16:26;;;;;;;;;;;4.30;99.90;;;;;;5113030;28;20046;-80
2022/03/23 06:19:11;;;;;;;69.03;36.97;;;4.30;99.90;;;;;;5106304;28;19914;-81
2022/03/23 06:21:55;;;;;;;70.85;38.05;;;5.00;99.90;;;;;;5095896;28;20037;-81
2022/03/23 06:24:39;;;;;;;68.90;38.00;;;4.40;99.90;;;;;;5106762;28;20117;-81
2022/03/23 06:27:24;;;;;;;;;;;5.30;99.90;;;;;;5092996;28;20051;-81
2022/03/23 06:30:09;;;;;;;64.47;36.13;;;4.50;99.90;;;;;;5098604;28;21258;-80
2022/03/23 06:32:53;;;;;;;71.25;37.97;;;4.50;99.90;;;;;;5105601;28;20190;-81
2022/03/23 06:35:37;;;;;;;;;;;4.60;99.90;;;;;;5111020;28;20058;-81
2022/03/23 06:38:22;;;;;;;65.80;36.25;;;5.10;99.90;;;;;;5113058;28;19953;-81
2022/03/23 06:41:07;;;;;;;75.55;40.72;;;4.90;99.90;;;;;;5111609;28;20038;-80
2022/03/23 06:43:52;;;;;;;78.68;42.70;;;4.80;99.90;;;;;;5105687;28;20459;-82
2022/03/23 06:46:37;;;;;;;79.25;41.20;;;4.90;99.90;;;;;;5091715;28;20071;-81
2022/03/23 06:49:21;;;;;;;78.45;43.92;;;5.70;99.90;;;;;;5087952;28;20100;-82
2022/03/23 06:52:05;;;;;;;;;;;6.00;99.90;;;;;;5111464;28;20257;-82
2022/03/23 06:54:50;;;;;;;61.72;36.35;;;5.20;99.90;;;;;;5111222;28;19926;-83
2022/03/23 06:57:34;;;;;;;88.45;49.00;;;5.30;99.90;;;;;;5111645;28;20547;-81
2022/03/23 07:00:18;;;;;;;93.03;50.05;;;5.40;99.90;;;;;;5104826;28;20100;-82
2022/03/23 07:03:02;;;;;;;84.53;49.63;;;6.20;99.90;;;;;;5091049;28;20051;-82
2022/03/23 07:05:47;;;;;;;87.47;50.03;;;5.70;99.90;;;;;;5093701;28;20495;-81
2022/03/23 07:11:34;;;;;;;86.25;47.00;;;6.90;99.90;;;;;;5110342;28;20055;-81
2022/03/23 07:14:19;;;;;;;77.05;46.03;;;6.10;99.90;;;;;;5110055;28;20043;-82
2022/03/23 07:17:03;;;;;;;;;;;6.20;99.90;;;;;;5126745;27;20121;-82
2022/03/23 07:19:47;;;;;;;;;;;6.40;99.90;;;;;;5102900;28;19918;-82
2022/03/23 07:22:31;;;;;;;69.35;43.33;;;6.50;99.90;;;;;;5090951;28;20006;-81
2022/03/23 07:25:16;;;;;;;67.63;42.13;;;7.10;99.90;;;;;;5102116;28;20114;-83
2022/03/23 07:28:00;;;;;;;72.15;43.42;;;6.90;99.90;;;;;;5110542;28;20552;-83
2022/03/23 07:30:44;;;;;;;68.10;40.00;;;7.60;99.90;;;;;;5112083;28;20026;-82
2022/03/23 07:33:30;;;;;;;66.47;42.45;;;8.70;99.90;;;;;;5111099;28;20046;-82
2022/03/23 07:36:16;;;;;;;58.53;38.42;;;9.80;99.90;;;;;;5106382;28;20535;-81
2022/03/23 07:39:00;;;;;;;58.83;37.78;;;10.80;99.90;;;;;;5110827;28;20537;-83
2022/03/23 07:41:44;;;;;;;62.45;40.70;;;11.70;99.90;;;;;;5112141;28;20383;-82
2022/03/23 07:44:29;;;;;;;;;;;12.40;99.90;;;;;;5112588;28;20489;-82
2022/03/23 07:47:15;;;;;;;58.65;37.95;;;13.00;99.90;;;;;;5111375;28;19990;-82
2022/03/23 07:49:59;;;;;;;56.97;38.15;;;13.50;99.90;;;;;;5093915;28;21346;-82
2022/03/23 07:52:43;;;;;;;52.88;35.15;;;13.80;99.90;;;;;;5093864;28;20127;-82
2022/03/23 07:55:27;;;;;;;49.90;35.13;;;14.20;99.90;;;;;;5096781;28;20093;-82
2022/03/23 07:58:12;;;;;;;52.80;35.17;;;14.60;99.90;;;;;;5077378;28;20043;-82
2022/03/23 08:00:57;;;;;;;46.60;33.13;;;14.90;99.90;;;;;;5099337;28;20125;-81
2022/03/23 08:03:41;;;;;;;48.45;32.10;;;15.20;99.50;;;;;;5094521;28;20553;-80
2022/03/23 08:06:26;;;;;;;48.03;32.42;;;15.60;98.20;;;;;;5090900;28;20071;-80
2022/03/23 08:09:11;;;;;;;46.50;31.83;;;15.80;95.80;;;;;;5090564;28;20070;-80
2022/03/23 08:11:56;;;;;;;;;;;15.50;93.60;;;;;;5120540;28;20527;-80
2022/03/23 08:14:40;;;;;;;46.88;30.55;;;14.80;90.00;;;;;;5092206;28;19914;-80
2022/03/23 08:17:25;;;;;;;44.08;31.58;;;14.10;94.70;;;;;;5093786;28;20408;-80
2022/03/23 08:23:17;;;;;;;;;;;13.40;96.50;;;;;;5112309;28;20039;-80
2022/03/23 08:26:08;;;;;;;42.28;29.35;;;13.40;97.30;;;;;;5110627;28;20393;-81
2022/03/23 08:28:52;;;;;;;45.80;29.95;;;13.80;98.60;;;;;;5111443;28;20104;-80
2022/03/23 08:31:37;;;;;;;39.67;29.20;;;14.20;97.30;;;;;;5111235;28;20035;-80
2022/03/23 08:34:22;;;;;;;45.03;29.10;;;14.70;96.20;;;;;;5111624;28;20539;-80
2022/03/23 08:37:06;;;;;;;42.30;29.48;;;15.10;95.20;;;;;;5110740;28;20093;-81
2022/03/23 08:39:50;;;;;;;44.55;29.23;;;15.40;94.80;;;;;;5097003;28;20486;-80
2022/03/23 08:42:34;;;;;;;38.28;27.50;;;15.50;94.60;;;;;;5096540;28;20054;-80
2022/03/23 08:45:19;;;;;;;41.92;28.23;;;15.30;93.90;;;;;;5096255;28;20407;-80
2022/03/23 08:48:03;;;;;;;39.55;28.10;;;15.10;93.80;;;;;;5110696;28;20114;-81
2022/03/23 08:50:49;;;;;;;43.35;27.00;;;14.90;94.40;;;;;;5110882;28;20090;-80
2022/03/23 08:53:34;;;;;;;41.28;27.27;;;14.80;94.30;;;;;;5112112;28;20097;-80
2022/03/23 08:56:18;;;;;;;36.97;25.77;;;14.80;94.90;;;;;;5110482;28;20407;-80
2022/03/23 08:59:02;;;;;;;37.88;26.25;;;14.90;94.50;;;;;;5112080;28;20047;-82
2022/03/23 09:01:47;;;;;;;37.25;24.77;;;15.00;93.90;;;;;;5111026;28;20043;-80
2022/03/23 09:04:31;;;;;;;35.55;23.70;;;15.20;93.10;;;;;;5111922;28;20042;-79
2022/03/23 09:07:16;;;;;;;32.88;25.25;;;15.40;91.60;;;;;;5110315;28;20090;-79
2022/03/23 09:10:00;;;;;;;35.13;24.38;;;15.50;91.00;;;;;;5093401;28;20090;-80
2022/03/23 09:12:44;;;;;;;35.45;23.65;;;15.60;90.00;;;;;;5110813;28;20051;-80
2022/03/23 09:15:30;;;;;;;33.10;22.42;;;15.60;88.60;;;;;;5110247;28;20043;-81
2022/03/23 09:18:14;;;;;;;28.88;22.33;;;15.70;88.10;;;;;;5114069;28;20112;-80
2022/03/23 09:20:58;;;;;;;33.33;22.80;;;15.80;84.10;;;;;;5114882;28;20103;-80
2022/03/23 09:23:43;;;;;;;30.75;21.67;;;15.90;82.50;;;;;;5114375;28;20164;-80
2022/03/23 09:26:28;;;;;;;34.55;21.98;;;16.10;81.60;;;;;;5113639;28;20034;-80
2022/03/23 09:29:12;;;;;;;32.05;21.73;;;16.50;79.50;;;;;;5114879;28;20051;-80
2022/03/23 09:31:56;;;;;;;32.83;22.95;;;16.80;78.00;;;;;;5114346;28;20038;-79
2022/03/23 09:34:40;;;;;;;31.40;21.23;;;16.90;75.70;;;;;;5115367;28;20034;-79
2022/03/23 09:40:31;;;;;;;28.23;21.20;;;17.00;74.00;;;;;;5113624;28;20105;-80
2022/03/23 09:43:19;;;;;;;29.00;21.63;;;17.20;72.90;;;;;;5113633;28;20074;-81
2022/03/23 09:46:03;;;;;;;26.95;19.02;;;;;;;;;;5114869;28;20394;-81
2022/03/23 09:48:49;;;;;;;26.63;19.33;;;17.20;70.90;;;;;;5115267;28;20407;-81
2022/03/23 09:51:35;;;;;;;28.23;20.80;;;17.40;69.90;;;;;;5114434;28;20502;-80
2022/03/23 09:54:21;;;;;;;23.52;16.90;;;17.60;65.40;;;;;;5099214;28;20039;-79
2022/03/23 09:57:08;;;;;;;21.23;16.65;;;17.60;65.80;;;;;;5114481;28;20121;-79
2022/03/23 09:59:53;;;;;;;22.38;15.55;;;17.70;64.10;;;;;;5114541;28;20116;-81
2022/03/23 10:02:40;;;;;;;19.42;14.75;;;17.70;61.70;;;;;;5098618;28;20123;-81
2022/03/23 10:05:27;;;;;;;21.92;15.45;;;17.90;60.60;;;;;;5113548;28;20398;-81
2022/03/23 10:08:20;;;;;;;18.65;14.23;;;18.10;58.80;;;;;;5114659;28;20096;-82
2022/03/23 10:11:42;;;;;;;17.55;14.13;;;18.20;56.40;;;;;;5114157;28;20067;-80
2022/03/23 10:14:35;;;;;;;18.92;13.43;;;18.20;54.40;;;;;;5114054;28;20060;-81
2022/03/23 10:17:48;;;;;;;17.52;13.23;;;18.30;54.10;;;;;;5114105;28;20123;-82
2022/03/23 10:20:32;;;;;;;15.57;12.32;;;18.30;51.90;;;;;;5113799;28;20054;-81
2022/03/23 10:23:20;;;;;;;16.55;12.75;;;18.40;51.20;;;;;;5112815;28;20397;-84
2022/03/23 10:26:14;;;;;;;14.50;11.90;;;18.40;48.40;;;;;;5112964;28;20065;-81
2022/03/23 10:28:59;;;;;;;14.25;10.93;;;18.40;49.10;;;;;;5112777;28;20093;-81
2022/03/23 10:31:43;;;;;;;15.00;11.65;;;18.50;49.20;;;;;;5113075;28;20500;-81
2022/03/23 10:34:43;;;;;;;18.23;11.43;;;18.60;48.20;;;;;;5098307;28;20078;-81
2022/03/23 10:37:28;;;;;;;22.80;11.80;;;18.70;47.10;;;;;;5112596;28;20180;-82
2022/03/23 10:40:17;;;;;;;17.67;11.15;;;18.80;46.10;;;;;;5116686;27;20157;-81
2022/03/23 10:43:01;;;;;;;18.65;11.68;;;18.70;45.40;;;;;;5114004;28;20042;-82
2022/03/23 10:45:47;;;;;;;15.35;11.10;;;18.80;45.90;;;;;;5111014;28;20057;-81
2022/03/23 10:48:31;;;;;;;18.33;12.15;;;18.80;44.80;;;;;;5125061;27;20046;-81
2022/03/23 10:51:29;;;;;;;16.88;12.75;;;18.90;44.50;;;;;;5098606;28;20391;-81
2022/03/23 10:54:17;;;;;;;18.42;12.48;;;19.10;45.10;;;;;;5114058;28;20030;-81
2022/03/23 10:57:02;;;;;;;19.48;11.63;;;19.20;44.50;;;;;;5113813;28;20050;-81
2022/03/23 10:59:47;;;;;;;18.10;11.25;;;19.30;44.50;;;;;;5112696;28;20042;-81
2022/03/23 11:02:47;;;;;;;16.98;10.60;;;19.30;44.70;;;;;;5113166;28;20030;-82
2022/03/23 11:05:49;;;;;;;18.13;11.27;;;19.30;41.60;;;;;;5113087;28;20457;-81
2022/03/23 11:08:34;;;;;;;21.35;11.93;;;19.20;41.90;;;;;;5091519;28;20043;-81
2022/03/23 11:17:28;;;;;;;19.65;12.05;;;19.40;44.50;;;;;;5092484;28;20082;-83
2022/03/23 11:20:16;;;;;;;23.80;11.02;;;19.50;44.00;;;;;;5092107;28;20119;-82
2022/03/23 11:23:22;;;;;;;23.25;12.93;;;19.60;44.10;;;;;;5111671;28;20047;-81
2022/03/23 11:26:09;;;;;;;22.40;11.32;;;19.60;41.30;;;;;;5112406;28;20038;-81
2022/03/23 11:28:56;;;;;;;17.98;9.85;;;19.50;42.70;;;;;;5112452;28;20074;-81
2022/03/23 11:31:41;;;;;;;26.38;10.07;;;19.40;42.50;;;;;;5112671;28;20491;-81
2022/03/23 11:34:25;;;;;;;20.15;10.88;;;19.40;43.20;;;;;;5111335;28;20038;-81
2022/03/23 11:37:10;;;;;;;23.17;11.20;;;19.60;43.50;;;;;;5112082;28;20073;-80
2022/03/23 11:39:56;;;;;;;21.13;10.70;;;19.80;43.50;;;;;;5097260;28;20058;-80
2022/03/23 11:42:40;;;;;;;16.80;10.98;;;20.00;42.40;;;;;;5112401;28;20059;-80
2022/03/23 11:45:24;;;;;;;21.02;11.48;;;20.10;42.10;;;;;;5112690;28;20043;-83
2022/03/23 11:48:28;;;;;;;26.70;9.85;;;20.10;42.00;;;;;;5097097;28;20100;-80
2022/03/23 11:51:40;;;;;;;19.65;9.63;;;20.10;42.80;;;;;;5112959;28;20435;-81
2022/03/23 11:55:37;;;;;;;15.77;9.68;;;20.30;42.10;;;;;;5112449;28;20031;-83
2022/03/23 11:57:56;;;;;;;24.10;9.40;;;20.30;41.30;;;;;;5112209;28;20113;-80
2022/03/23 12:00:44;;;;;;;18.92;8.65;;;20.10;39.00;;;;;;5111233;28;20123;-81
2022/03/23 12:03:43;;;;;;;27.25;8.32;;;19.90;40.00;;;;;;5112129;28;20106;-83
2022/03/23 12:06:41;;;;;;;22.45;7.38;;;19.80;41.10;;;;;;5111540;28;20532;-83
2022/03/23 12:09:29;;;;;;;22.52;9.13;;;19.90;40.90;;;;;;5140627;27;20098;-83
2022/03/23 12:12:41;;;;;;;19.98;9.57;;;20.00;40.80;;;;;;5112805;28;20059;-81
2022/03/23 12:15:30;;;;;;;19.52;8.82;;;20.20;41.20;;;;;;5112349;28;20081;-81
2022/03/23 12:18:16;;;;;;;21.90;10.38;;;20.30;41.00;;;;;;5111501;28;20108;-81
2022/03/23 12:21:00;;;;;;;19.60;9.13;;;20.40;40.60;;;;;;5126536;27;20136;-81
2022/03/23 12:24:02;;;;;;;22.08;9.05;;;20.30;40.60;;;;;;5111135;28;20038;-81
2022/03/23 12:26:54;;;;;;;22.70;8.30;;;20.40;39.20;;;;;;5139970;27;20062;-81
2022/03/23 12:29:46;;;;;;;21.75;8.25;;;20.40;41.20;;;;;;5111442;28;20030;-81
2022/03/23 12:32:38;;;;;;;22.83;8.50;;;20.50;41.00;;;;;;5110460;28;20084;-82
2022/03/23 12:35:29;;;;;;;17.17;7.93;;;20.50;39.40;;;;;;5111498;28;20047;-81
2022/03/23 12:38:24;;;;;;;23.80;10.18;;;20.40;39.70;;;;;;5111513;28;20509;-81
2022/03/23 12:41:09;;;;;;;24.45;8.63;;;20.30;40.90;;;;;;5112542;28;20038;-81
2022/03/23 12:43:53;;;;;;;20.20;7.45;;;20.30;40.50;;;;;;5111848;28;20084;-81
2022/03/23 12:46:44;;;;;;;23.38;7.70;;;20.20;39.20;;;;;;5110670;28;20498;-81
2022/03/23 12:58:49;;;;;;;17.15;6.88;;;20.30;40.10;;;;;;5094351;28;20046;-81
2022/03/23 13:01:33;;;;;;;18.25;8.35;;;20.30;39.20;;;;;;5106219;28;20058;-84
2022/03/23 13:04:44;;;;;;;22.38;7.75;;;20.30;39.40;;;;;;5100702;28;20096;-81
2022/03/23 13:07:29;;;;;;;20.38;6.70;;;20.40;39.30;;;;;;5115122;28;20058;-82
2022/03/23 13:10:14;;;;;;;21.15;8.32;;;20.60;39.40;;;;;;5116004;28;20042;-82
2022/03/23 13:13:08;;;;;;;21.35;6.65;;;20.70;38.80;;;;;;5114495;28;20039;-84
2022/03/23 13:15:53;;;;;;;16.38;6.80;;;20.80;38.80;;;;;;5099655;28;20074;-81
2022/03/23 13:18:38;;;;;;;15.60;6.93;;;20.80;38.50;;;;;;5115209;28;20039;-83
2022/03/23 13:21:24;;;;;;;18.08;6.03;;;20.90;38.30;;;;;;5115967;28;20043;-82
2022/03/23 13:24:10;;;;;;;23.27;6.93;;;20.90;38.30;;;;;;5115755;28;20047;-82
2022/03/23 13:26:56;;;;;;;18.90;6.38;;;20.80;39.10;;;;;;5113846;28;20074;-81
2022/03/23 13:29:40;;;;;;;15.00;5.70;;;20.90;39.20;;;;;;5114529;28;20037;-83
2022/03/23 13:32:34;;;;;;;15.80;6.53;;;21.00;38.80;;;;;;5095452;28;20038;-84
2022/03/23 13:35:21;;;;;;;15.73;8.13;;;20.90;38.90;;;;;;5094303;28;20035;-81
2022/03/23 13:38:07;;;;;;;18.90;7.95;;;20.80;39.00;;;;;;5095257;28;20039;-81
2022/03/23 13:43:55;;;;;;;21.83;7.55;;;20.80;37.90;;;;;;5093434;28;20120;-81
2022/03/23 13:46:40;;;;;;;21.42;7.03;;;20.80;37.80;;;;;;5112890;28;20039;-83
2022/03/23 13:49:24;;;;;;;18.90;6.25;;;20.80;38.20;;;;;;5115354;28;20128;-81
2022/03/23 13:52:08;;;;;;;22.38;7.13;;;20.90;38.60;;;;;;5113879;28;20066;-81
2022/03/23 13:54:56;;;;;;;17.42;5.40;;;20.90;37.90;;;;;;5113600;28;20047;-81
2022/03/23 13:57:41;;;;;;;14.32;5.78;;;;;;;;;;5113391;28;20050;-84
2022/03/23 14:00:29;;;;;;;16.63;5.97;;;20.80;36.80;;;;;;5114209;28;20078;-81
2022/03/23 14:03:18;;;;;;;14.55;6.40;;;20.90;37.90;;;;;;5113377;28;20088;-81
2022/03/23 14:06:11;;;;;;;16.15;6.22;;;20.80;37.50;;;;;;5112980;28;20034;-81
2022/03/23 14:08:57;;;;;;;;;;;20.80;38.20;;;;;;5113557;28;20400;-81
2022/03/23 14:12:02;;;;;;;15.05;6.05;;;20.80;37.70;;;;;;5114451;28;20461;-82
2022/03/23 14:14:47;;;;;;;18.00;6.85;;;20.70;36.50;;;;;;5113128;28;20114;-82
2022/03/23 14:17:35;;;;;;;15.40;7.47;;;20.60;38.10;;;;;;5084952;28;20062;-82
2022/03/23 14:20:22;;;;;;;18.05;6.07;;;20.60;38.00;;;;;;5114262;28;20069;-81
2022/03/23 14:23:06;;;;;;;14.48;6.68;;;20.50;37.90;;;;;;5113086;28;20081;-81
2022/03/23 14:25:51;;;;;;;15.93;7.05;;;20.50;38.10;;;;;;5112439;28;20510;-82
2022/03/23 14:28:45;;;;;;;17.55;8.48;;;20.40;38.10;;;;;;5098996;28;20046;-82
2022/03/23 14:31:29;;;;;;;20.65;8.20;;;20.40;37.50;;;;;;5113439;28;20039;-81
2022/03/23 14:34:14;;;;;;;17.67;7.45;;;20.30;37.90;;;;;;5113088;28;20392;-81
2022/03/23 14:37:05;;;;;;;15.52;6.90;;;20.20;37.80;;;;;;5112728;28;20042;-81
2022/03/23 14:39:49;;;;;;;15.30;6.60;;;20.10;37.40;;;;;;5112337;28;20088;-82
2022/03/23 14:42:34;;;;;;;27.50;7.68;;;20.10;37.80;;;;;;5098253;28;20038;-81
2022/03/23 14:45:43;;;;;;;17.90;8.07;;;20.00;38.00;;;;;;5114177;28;20510;-82
2022/03/23 14:48:35;;;;;;;18.40;8.25;;;20.00;38.30;;;;;;5113105;28;20407;-81
2022/03/23 14:51:21;;;;;;;20.97;8.03;;;20.00;38.40;;;;;;5114178;28;20045;-81
2022/03/23 14:54:10;;;;;;;23.08;8.27;;;20.00;38.80;;;;;;5098222;28;20039;-82
2022/03/23 14:56:54;;;;;;;23.92;8.88;;;20.00;38.50;;;;;;5111818;28;20566;-82
2022/03/23 14:59:42;;;;;;;24.15;8.18;;;19.80;38.40;;;;;;5112975;28;20161;-81
2022/03/23 15:02:29;;;;;;;20.13;7.53;;;19.70;38.50;;;;;;5112856;28;20050;-81
2022/03/23 15:14:23;;;;;;;16.10;6.53;;;;;;;;;;5091616;28;20504;-80